Temp: 11.8°C   Baro: 993.0mb
  Wind: 2.0mph   Dir: SSE (154°)
  Rain: 0.6mm (0.0mm/hr)
  Solar: 0W/m2  Hum: 75%
 
Bath Spa Weather Station Historical Data
Daily Summary for August 20, 2019 Units:  Both    English   Metric
Daily Weekly Monthly Yearly Custom
  High: Low: Average:
Temperature: 55 °F /  12.8 °C 41.5 °F /  5.3 °C 47.8 °F /  8.8 °C
Dew Point: 46.8 °F /  8.2 °C 39.6 °F /  4.2 °C 43.9 °F /  6.6 °C
Humidity: 94.9% 71.4% 87%
Wind Speed: 8.6mph /  13.8km/h - 2.1mph /  3.4km/h
Wind Gust: 17mph /  27.4km/h - -
Wind- - SSW
Pressure: 30.00 in /  1015.8 hPa 29.70 in /  1005.6 hPa -
Precipitation: 0.00 in /  0 mm    
Historical Graphs
 
 
Tabular Data for August 20, 2019
Time Temperature Dew Point Pressure Wind Wind Speed Wind Gust Humidity Rainfall Rate (Hourly) solar
00:04 43.2 °F /  6.2 °C 41 °F /  5 °C 29.70in /  1005.6hPa Calm     92% 0.00in /  0mm 0 W/m2
00:09 43.1 °F /  6.2 °C 40.9 °F /  4.9 °C 29.70in /  1005.6hPa Calm     92% 0.00in /  0mm 0 W/m2
00:14 43 °F /  6.1 °C 40.8 °F /  4.9 °C 29.70in /  1005.6hPa Calm     92% 0.00in /  0mm 0 W/m2
00:19 43 °F /  6.1 °C 40.8 °F /  4.9 °C 29.70in /  1005.6hPa Calm     92% 0.00in /  0mm 0 W/m2
00:24 43 °F /  6.1 °C 40.8 °F /  4.9 °C 29.71in /  1006hPa Calm     92% 0.00in /  0mm 0 W/m2
00:29 43 °F /  6.1 °C 40.8 °F /  4.9 °C 29.71in /  1006hPa Calm     92% 0.00in /  0mm 0 W/m2
00:34 43 °F /  6.1 °C 40.8 °F /  4.9 °C 29.71in /  1006hPa Calm     92% 0.00in /  0mm 0 W/m2
00:39 42.9 °F /  6.1 °C 40.7 °F /  4.8 °C 29.71in /  1006hPa Calm   1mph /  1.6km/h 92% 0.00in /  0mm 0 W/m2
00:44 42.8 °F /  6 °C 40.6 °F /  4.8 °C 29.71in /  1006hPa Calm     92% 0.00in /  0mm 0 W/m2
00:49 42.9 °F /  6.1 °C 40.7 °F /  4.8 °C 29.71in /  1006hPa Calm     92% 0.00in /  0mm 0 W/m2
00:54 42.8 °F /  6 °C 40.6 °F /  4.8 °C 29.71in /  1006hPa Calm     92% 0.00in /  0mm 0 W/m2
00:59 42.6 °F /  5.9 °C 40.5 °F /  4.7 °C 29.71in /  1006hPa Calm     92% 0.00in /  0mm 0 W/m2
01:04 42.4 °F /  5.8 °C 40.3 °F /  4.6 °C 29.71in /  1006hPa Calm     92% 0.00in /  0mm 0 W/m2
01:09 42.3 °F /  5.7 °C 40.2 °F /  4.6 °C 29.71in /  1006hPa Calm     92% 0.00in /  0mm 0 W/m2
01:14 42.3 °F /  5.7 °C 40.1 °F /  4.5 °C 29.72in /  1006.3hPa Calm     92% 0.00in /  0mm 0 W/m2
01:19 42.3 °F /  5.7 °C 40.1 °F /  4.5 °C 29.72in /  1006.3hPa Calm     92% 0.00in /  0mm 0 W/m2
01:24 42.2 °F /  5.7 °C 40 °F /  4.4 °C 29.72in /  1006.3hPa Calm     92% 0.00in /  0mm 0 W/m2
01:29 42.1 °F /  5.6 °C 39.9 °F /  4.4 °C 29.72in /  1006.3hPa Calm     92% 0.00in /  0mm 0 W/m2
01:34 42.1 °F /  5.6 °C 39.9 °F /  4.4 °C 29.72in /  1006.3hPa Calm     92% 0.00in /  0mm 0 W/m2
01:39 42.1 °F /  5.6 °C 40.2 °F /  4.6 °C 29.72in /  1006.3hPa Calm     92.9% 0.00in /  0mm 0 W/m2
01:44 41.9 °F /  5.5 °C 40.1 °F /  4.5 °C 29.72in /  1006.3hPa Calm     93% 0.00in /  0mm 0 W/m2
01:49 41.9 °F /  5.5 °C 40.1 °F /  4.5 °C 29.72in /  1006.3hPa Calm     93% 0.00in /  0mm 0 W/m2
01:54 41.7 °F /  5.4 °C 39.7 °F /  4.3 °C 29.72in /  1006.3hPa West 0.1mph /  0.2km/h 1mph /  1.6km/h 92.4% 0.00in /  0mm 0 W/m2
01:59 41.7 °F /  5.4 °C 39.6 °F /  4.2 °C 29.72in /  1006.3hPa Calm   1mph /  1.6km/h 92% 0.00in /  0mm 0 W/m2
02:04 41.7 °F /  5.4 °C 39.8 °F /  4.3 °C 29.72in /  1006.3hPa Calm   1mph /  1.6km/h 92.6% 0.00in /  0mm 0 W/m2
02:09 41.7 °F /  5.4 °C 39.9 °F /  4.4 °C 29.72in /  1006.3hPa Calm     93% 0.00in /  0mm 0 W/m2
02:14 41.6 °F /  5.3 °C 39.8 °F /  4.3 °C 29.72in /  1006.3hPa Calm     93% 0.00in /  0mm 0 W/m2
02:19 41.5 °F /  5.3 °C 39.7 °F /  4.3 °C 29.72in /  1006.3hPa Calm     93% 0.00in /  0mm 0 W/m2
02:24 41.6 °F /  5.3 °C 39.8 °F /  4.3 °C 29.73in /  1006.7hPa Calm     93% 0.00in /  0mm 0 W/m2
02:29 41.7 °F /  5.4 °C 39.9 °F /  4.4 °C 29.73in /  1006.7hPa Calm     93% 0.00in /  0mm 0 W/m2
02:34 41.8 °F /  5.4 °C 40 °F /  4.4 °C 29.73in /  1006.7hPa West 0.1mph /  0.2km/h 1mph /  1.6km/h 93% 0.00in /  0mm 0 W/m2
02:39 41.9 °F /  5.5 °C 40.1 °F /  4.5 °C 29.73in /  1006.7hPa Calm     93% 0.00in /  0mm 0 W/m2
02:44 42.1 °F /  5.6 °C 40.3 °F /  4.6 °C 29.73in /  1006.7hPa Calm     93% 0.00in /  0mm 0 W/m2
02:49 42.2 °F /  5.7 °C 40.4 °F /  4.7 °C 29.74in /  1007hPa Calm     93% 0.00in /  0mm 0 W/m2
02:54 42.3 °F /  5.7 °C 40.5 °F /  4.7 °C 29.74in /  1007hPa Calm     93% 0.00in /  0mm 0 W/m2
02:59 42.3 °F /  5.7 °C 40.5 °F /  4.7 °C 29.74in /  1007hPa Calm     93% 0.00in /  0mm 0 W/m2
03:04 42.4 °F /  5.8 °C 40.6 °F /  4.8 °C 29.73in /  1006.7hPa Calm   1mph /  1.6km/h 93% 0.00in /  0mm 0 W/m2
03:09 42.6 °F /  5.9 °C 40.8 °F /  4.9 °C 29.73in /  1006.7hPa Calm   1mph /  1.6km/h 93% 0.00in /  0mm 0 W/m2
03:14 42.7 °F /  5.9 °C 40.9 °F /  4.9 °C 29.73in /  1006.7hPa Calm     93% 0.00in /  0mm 0 W/m2
03:19 42.9 °F /  6.1 °C 41.1 °F /  5.1 °C 29.74in /  1007hPa West 0.1mph /  0.2km/h 1mph /  1.6km/h 93% 0.00in /  0mm 0 W/m2
03:24 43 °F /  6.1 °C 41.2 °F /  5.1 °C 29.74in /  1007hPa Calm   1mph /  1.6km/h 93% 0.00in /  0mm 0 W/m2
03:29 43 °F /  6.1 °C 41.2 °F /  5.1 °C 29.74in /  1007hPa Calm     93% 0.00in /  0mm 0 W/m2
03:34 43.1 °F /  6.2 °C 41.3 °F /  5.2 °C 29.74in /  1007hPa Calm   1mph /  1.6km/h 93% 0.00in /  0mm 0 W/m2
03:39 43.2 °F /  6.2 °C 41.4 °F /  5.2 °C 29.74in /  1007hPa West 0.1mph /  0.2km/h 1mph /  1.6km/h 93% 0.00in /  0mm 0 W/m2
03:44 43.3 °F /  6.3 °C 41.5 °F /  5.3 °C 29.74in /  1007hPa Calm   1mph /  1.6km/h 93% 0.00in /  0mm 0 W/m2
03:49 43.3 °F /  6.3 °C 41.5 °F /  5.3 °C 29.74in /  1007hPa West 0.2mph /  0.3km/h 1mph /  1.6km/h 93% 0.00in /  0mm 0 W/m2
03:54 43.5 °F /  6.4 °C 41.7 °F /  5.4 °C 29.74in /  1007hPa West 0.1mph /  0.2km/h 1mph /  1.6km/h 93% 0.00in /  0mm 0 W/m2
03:59 43.6 °F /  6.4 °C 41.9 °F /  5.5 °C 29.74in /  1007hPa West 0.3mph /  0.5km/h 2mph /  3.2km/h 93.5% 0.00in /  0mm 0 W/m2
04:04 43.7 °F /  6.5 °C 42.1 °F /  5.6 °C 29.75in /  1007.3hPa West 0.1mph /  0.2km/h 1mph /  1.6km/h 94% 0.00in /  0mm 0 W/m2
04:09 43.8 °F /  6.6 °C 42.2 °F /  5.7 °C 29.75in /  1007.3hPa West 0.2mph /  0.3km/h 1mph /  1.6km/h 94% 0.00in /  0mm 0 W/m2
04:14 43.9 °F /  6.6 °C 42.3 °F /  5.7 °C 29.75in /  1007.3hPa Calm   1mph /  1.6km/h 94% 0.00in /  0mm 0 W/m2
04:19 44.1 °F /  6.7 °C 42.4 °F /  5.8 °C 29.75in /  1007.3hPa Calm     94% 0.00in /  0mm 0 W/m2
04:24 44.1 °F /  6.7 °C 42.3 °F /  5.7 °C 29.75in /  1007.3hPa Calm     93.6% 0.00in /  0mm 0 W/m2
04:29 44.1 °F /  6.7 °C 42.4 °F /  5.8 °C 29.75in /  1007.3hPa Calm     93.8% 0.00in /  0mm 0 W/m2
04:34 44.2 °F /  6.8 °C 42.6 °F /  5.9 °C 29.75in /  1007.3hPa West 0.2mph /  0.3km/h 1mph /  1.6km/h 94% 0.00in /  0mm 0 W/m2
04:39 44.2 °F /  6.8 °C 42.6 °F /  5.9 °C 29.75in /  1007.3hPa Calm   1mph /  1.6km/h 94% 0.00in /  0mm 0 W/m2
04:44 44.2 °F /  6.8 °C 42.6 °F /  5.9 °C 29.75in /  1007.3hPa Calm     94% 0.00in /  0mm 0 W/m2
04:49 44.2 °F /  6.8 °C 42.6 °F /  5.9 °C 29.76in /  1007.7hPa Calm     94% 0.00in /  0mm 0 W/m2
04:54 44.2 °F /  6.8 °C 42.6 °F /  5.9 °C 29.76in /  1007.7hPa Calm     94% 0.00in /  0mm 0 W/m2
04:59 44.2 °F /  6.8 °C 42.6 °F /  5.9 °C 29.76in /  1007.7hPa Calm     94% 0.00in /  0mm 0 W/m2
05:04 44.2 °F /  6.8 °C 42.6 °F /  5.9 °C 29.76in /  1007.7hPa Calm     94% 0.00in /  0mm 0 W/m2
05:09 44.1 °F /  6.7 °C 42.4 °F /  5.8 °C 29.76in /  1007.7hPa Calm     94% 0.00in /  0mm 0 W/m2
05:14 44.1 °F /  6.7 °C 42.4 °F /  5.8 °C 29.76in /  1007.7hPa Calm   1mph /  1.6km/h 94% 0.00in /  0mm 0 W/m2
05:19 44.1 °F /  6.7 °C 42.4 °F /  5.8 °C 29.77in /  1008hPa West 0.3mph /  0.5km/h 2mph /  3.2km/h 94% 0.00in /  0mm 0 W/m2
05:24 43.9 °F /  6.6 °C 42.3 °F /  5.7 °C 29.77in /  1008hPa West 0.1mph /  0.2km/h 2mph /  3.2km/h 94% 0.00in /  0mm 0 W/m2
05:29 43.9 °F /  6.6 °C 42.3 °F /  5.7 °C 29.77in /  1008hPa Calm     94% 0.00in /  0mm 0 W/m2
05:34 43.7 °F /  6.5 °C 42.1 °F /  5.6 °C 29.78in /  1008.4hPa West 0.2mph /  0.3km/h 2mph /  3.2km/h 94% 0.00in /  0mm 0 W/m2
05:39 43.7 °F /  6.5 °C 42.1 °F /  5.6 °C 29.78in /  1008.4hPa Calm   2mph /  3.2km/h 94% 0.00in /  0mm 0 W/m2
05:44 43.7 °F /  6.5 °C 42.1 °F /  5.6 °C 29.78in /  1008.4hPa Calm     94% 0.00in /  0mm 0 W/m2
05:49 43.7 °F /  6.5 °C 42.1 °F /  5.6 °C 29.78in /  1008.4hPa Calm     94% 0.00in /  0mm 0 W/m2
05:54 43.8 °F /  6.6 °C 42.2 °F /  5.7 °C 29.78in /  1008.4hPa Calm     94% 0.00in /  0mm 0 W/m2
05:59 43.9 °F /  6.6 °C 42.3 °F /  5.7 °C 29.78in /  1008.4hPa Calm     94% 0.00in /  0mm 0 W/m2
06:04 43.9 °F /  6.6 °C 42.3 °F /  5.7 °C 29.78in /  1008.4hPa Calm     94% 0.00in /  0mm 0 W/m2
06:09 43.9 °F /  6.6 °C 42.3 °F /  5.7 °C 29.78in /  1008.4hPa Calm     94% 0.00in /  0mm 0 W/m2
06:14 44.1 °F /  6.7 °C 42.4 °F /  5.8 °C 29.78in /  1008.4hPa Calm     94% 0.00in /  0mm 0 W/m2
06:19 44 °F /  6.7 °C 42.4 °F /  5.8 °C 29.79in /  1008.7hPa Calm   1mph /  1.6km/h 94% 0.00in /  0mm 0 W/m2
06:24 44.1 °F /  6.7 °C 42.4 °F /  5.8 °C 29.79in /  1008.7hPa West 0.3mph /  0.5km/h 2mph /  3.2km/h 94% 0.00in /  0mm 0 W/m2
06:29 44.1 °F /  6.7 °C 42.4 °F /  5.8 °C 29.79in /  1008.7hPa Calm     94% 0.00in /  0mm 0 W/m2
06:34 44.2 °F /  6.8 °C 42.6 °F /  5.9 °C 29.79in /  1008.7hPa West 0.2mph /  0.3km/h 2mph /  3.2km/h 94% 0.00in /  0mm 0 W/m2
06:39 44.2 °F /  6.8 °C 42.6 °F /  5.9 °C 29.79in /  1008.7hPa West 0.1mph /  0.2km/h 2mph /  3.2km/h 94% 0.00in /  0mm 0 W/m2
06:44 44.2 °F /  6.8 °C 42.6 °F /  5.9 °C 29.80in /  1009hPa Calm     94% 0.00in /  0mm 0 W/m2
06:49 44.2 °F /  6.8 °C 42.5 °F /  5.8 °C 29.79in /  1008.7hPa West 0.1mph /  0.2km/h 1mph /  1.6km/h 94% 0.00in /  0mm 0 W/m2
06:54 44.1 °F /  6.7 °C 42.4 °F /  5.8 °C 29.79in /  1008.7hPa Calm   1mph /  1.6km/h 94% 0.00in /  0mm 0 W/m2
06:59 44 °F /  6.7 °C 42.4 °F /  5.8 °C 29.79in /  1008.7hPa Calm   1mph /  1.6km/h 94% 0.00in /  0mm 0 W/m2
07:04 43.9 °F /  6.6 °C 42.3 °F /  5.7 °C 29.79in /  1008.7hPa Calm   1mph /  1.6km/h 94% 0.00in /  0mm 0 W/m2
07:09 43.7 °F /  6.5 °C 42.1 °F /  5.6 °C 29.79in /  1008.7hPa Calm     94% 0.00in /  0mm 0 W/m2
07:14 43.4 °F /  6.3 °C 41.8 °F /  5.4 °C 29.79in /  1008.7hPa Calm     94% 0.00in /  0mm 0 W/m2
07:19 43.3 °F /  6.3 °C 41.7 °F /  5.4 °C 29.80in /  1009hPa Calm     94% 0.00in /  0mm 0 W/m2
07:24 43.3 °F /  6.3 °C 41.6 °F /  5.3 °C 29.80in /  1009hPa Calm     94% 0.00in /  0mm 0 W/m2
07:29 43.3 °F /  6.3 °C 41.7 °F /  5.4 °C 29.80in /  1009hPa Calm     94% 0.00in /  0mm 0 W/m2
07:34 43.3 °F /  6.3 °C 41.7 °F /  5.4 °C 29.80in /  1009hPa Calm     94% 0.00in /  0mm 0 W/m2
07:39 43.5 °F /  6.4 °C 41.9 °F /  5.5 °C 29.80in /  1009hPa Calm     94% 0.00in /  0mm 0 W/m2
07:44 43.7 °F /  6.5 °C 42.1 °F /  5.6 °C 29.81in /  1009.4hPa Calm     94% 0.00in /  0mm 0 W/m2
07:49 43.8 °F /  6.6 °C 42.2 °F /  5.7 °C 29.81in /  1009.4hPa Calm     94% 0.00in /  0mm 0 W/m2
07:54 43.9 °F /  6.6 °C 42.3 °F /  5.7 °C 29.81in /  1009.4hPa West 0.1mph /  0.2km/h 1mph /  1.6km/h 94% 0.00in /  0mm 5 W/m2
07:59 44.1 °F /  6.7 °C 42.4 °F /  5.8 °C 29.81in /  1009.4hPa Calm     94% 0.00in /  0mm 7 W/m2
08:04 44.4 °F /  6.9 °C 42.8 °F /  6 °C 29.82in /  1009.7hPa Calm     94% 0.00in /  0mm 7 W/m2
08:09 44.3 °F /  6.8 °C 42.7 °F /  5.9 °C 29.82in /  1009.7hPa West 0.5mph /  0.8km/h 2mph /  3.2km/h 94% 0.00in /  0mm 9 W/m2
08:14 44.2 °F /  6.8 °C 42.6 °F /  5.9 °C 29.83in /  1010hPa West 0.4mph /  0.6km/h 2mph /  3.2km/h 94% 0.00in /  0mm 11 W/m2
08:19 44.4 °F /  6.9 °C 42.8 °F /  6 °C 29.83in /  1010hPa West 0.5mph /  0.8km/h 2mph /  3.2km/h 94% 0.00in /  0mm 12 W/m2
08:24 44.4 °F /  6.9 °C 42.8 °F /  6 °C 29.83in /  1010hPa West 0.8mph /  1.3km/h 4mph /  6.4km/h 94% 0.00in /  0mm 16 W/m2
08:29 44.7 °F /  7.1 °C 43.1 °F /  6.2 °C 29.83in /  1010hPa WNW 0.3mph /  0.5km/h 4mph /  6.4km/h 94% 0.00in /  0mm 18 W/m2
08:34 44.7 °F /  7.1 °C 43.1 °F /  6.2 °C 29.83in /  1010hPa WNW 0.1mph /  0.2km/h 1mph /  1.6km/h 94% 0.00in /  0mm 23 W/m2
08:39 44.8 °F /  7.1 °C 43.2 °F /  6.2 °C 29.83in /  1010hPa Calm   1mph /  1.6km/h 94% 0.00in /  0mm 25 W/m2
08:44 44.8 °F /  7.1 °C 43.2 °F /  6.2 °C 29.83in /  1010hPa Calm     94% 0.00in /  0mm 23 W/m2
08:49 45.1 °F /  7.3 °C 43.4 °F /  6.3 °C 29.83in /  1010hPa WNW 0.9mph /  1.4km/h 4mph /  6.4km/h 94% 0.00in /  0mm 23 W/m2
08:54 45.2 °F /  7.3 °C 43.6 °F /  6.4 °C 29.83in /  1010hPa NW 0.9mph /  1.4km/h 5mph /  8km/h 94% 0.00in /  0mm 33 W/m2
08:59 45.5 °F /  7.5 °C 44.2 °F /  6.8 °C 29.83in /  1010hPa NNW 0.6mph /  1km/h 4mph /  6.4km/h 94.9% 0.00in /  0mm 33 W/m2
09:04 45.7 °F /  7.6 °C 44.3 °F /  6.8 °C 29.84in /  1010.4hPa NW 1mph /  1.6km/h 5mph /  8km/h 94.6% 0.00in /  0mm 47 W/m2
09:09 45.7 °F /  7.6 °C 44.1 °F /  6.7 °C 29.84in /  1010.4hPa NW 0.7mph /  1.1km/h 5mph /  8km/h 94% 0.00in /  0mm 60 W/m2
09:14 45.9 °F /  7.7 °C 44.2 °F /  6.8 °C 29.84in /  1010.4hPa WNW 0.5mph /  0.8km/h 4mph /  6.4km/h 94% 0.00in /  0mm 69 W/m2
09:19 45.9 °F /  7.7 °C 44.3 °F /  6.8 °C 29.84in /  1010.4hPa WNW 0.1mph /  0.2km/h 4mph /  6.4km/h 94% 0.00in /  0mm 70 W/m2
09:24 46.1 °F /  7.8 °C 44.5 °F /  6.9 °C 29.84in /  1010.4hPa WNW 1.4mph /  2.3km/h 4mph /  6.4km/h 94% 0.00in /  0mm 74 W/m2
09:29 46.3 °F /  7.9 °C 44.7 °F /  7.1 °C 29.84in /  1010.4hPa NNW 2.1mph /  3.4km/h 6mph /  9.7km/h 94% 0.00in /  0mm 70 W/m2
09:34 46.6 °F /  8.1 °C 45 °F /  7.2 °C 29.84in /  1010.4hPa NNW 1.3mph /  2.1km/h 5mph /  8km/h 94% 0.00in /  0mm 77 W/m2
09:39 46.8 °F /  8.2 °C 45.1 °F /  7.3 °C 29.84in /  1010.4hPa NNW 1.5mph /  2.4km/h 4mph /  6.4km/h 94% 0.00in /  0mm 86 W/m2
09:44 46.8 °F /  8.2 °C 45.2 °F /  7.3 °C 29.84in /  1010.4hPa North 1.8mph /  2.9km/h 7mph /  11.3km/h 94% 0.00in /  0mm 100 W/m2
09:49 46.9 °F /  8.3 °C 45.3 °F /  7.4 °C 29.84in /  1010.4hPa North 1.4mph /  2.3km/h 7mph /  11.3km/h 94% 0.00in /  0mm 100 W/m2
09:54 47 °F /  8.3 °C 45.4 °F /  7.4 °C 29.84in /  1010.4hPa North 0.6mph /  1km/h 4mph /  6.4km/h 94% 0.00in /  0mm 109 W/m2
09:59 47.2 °F /  8.4 °C 45.5 °F /  7.5 °C 29.85in /  1010.7hPa North 0.6mph /  1km/h 4mph /  6.4km/h 93.6% 0.00in /  0mm 114 W/m2
10:04 47.5 °F /  8.6 °C 45.5 °F /  7.5 °C 29.85in /  1010.7hPa NNW 1.6mph /  2.6km/h 6mph /  9.7km/h 93% 0.00in /  0mm 116 W/m2
10:09 47.8 °F /  8.8 °C 45.8 °F /  7.7 °C 29.85in /  1010.7hPa NW 0.5mph /  0.8km/h 4mph /  6.4km/h 93% 0.00in /  0mm 113 W/m2
10:14 48.1 °F /  8.9 °C 46.1 °F /  7.8 °C 29.85in /  1010.7hPa NNE 2.1mph /  3.4km/h 6mph /  9.7km/h 93% 0.00in /  0mm 120 W/m2
10:19 48.4 °F /  9.1 °C 46.3 °F /  7.9 °C 29.85in /  1010.7hPa ENE 1.3mph /  2.1km/h 6mph /  9.7km/h 92.5% 0.00in /  0mm 123 W/m2
10:24 48.6 °F /  9.2 °C 46.4 °F /  8 °C 29.86in /  1011.1hPa NE 2.6mph /  4.2km/h 5mph /  8km/h 92% 0.00in /  0mm 116 W/m2
10:29 48.8 °F /  9.3 °C 46.4 °F /  8 °C 29.86in /  1011.1hPa NNE 1.8mph /  2.9km/h 5mph /  8km/h 91.2% 0.00in /  0mm 128 W/m2
10:34 48.9 °F /  9.4 °C 46.3 °F /  7.9 °C 29.86in /  1011.1hPa NNW 2mph /  3.2km/h 7mph /  11.3km/h 90.6% 0.00in /  0mm 134 W/m2
10:39 49.2 °F /  9.6 °C 46.3 °F /  7.9 °C 29.86in /  1011.1hPa NNE 4.1mph /  6.6km/h 9mph /  14.5km/h 89.8% 0.00in /  0mm 141 W/m2
10:44 49.4 °F /  9.7 °C 46.2 °F /  7.9 °C 29.86in /  1011.1hPa NE 3mph /  4.8km/h 8mph /  12.9km/h 88.7% 0.00in /  0mm 144 W/m2
10:49 49.6 °F /  9.8 °C 46 °F /  7.8 °C 29.87in /  1011.4hPa North 2.7mph /  4.3km/h 8mph /  12.9km/h 87.6% 0.00in /  0mm 146 W/m2
10:54 49.6 °F /  9.8 °C 45.8 °F /  7.7 °C 29.87in /  1011.4hPa North 2.7mph /  4.3km/h 7mph /  11.3km/h 86.7% 0.00in /  0mm 134 W/m2
10:59 49.7 °F /  9.8 °C 45.6 °F /  7.6 °C 29.87in /  1011.4hPa NNE 2.1mph /  3.4km/h 8mph /  12.9km/h 85.7% 0.00in /  0mm 125 W/m2
11:04 49.8 °F /  9.9 °C 45.5 °F /  7.5 °C 29.87in /  1011.4hPa NE 1mph /  1.6km/h 4mph /  6.4km/h 85% 0.00in /  0mm 120 W/m2
11:09 49.9 °F /  9.9 °C 45.4 °F /  7.4 °C 29.87in /  1011.4hPa NE 0.2mph /  0.3km/h 8mph /  12.9km/h 84.4% 0.00in /  0mm 121 W/m2
11:14 50.1 °F /  10.1 °C 45.4 °F /  7.4 °C 29.88in /  1011.7hPa NE 0.2mph /  0.3km/h 2mph /  3.2km/h 84% 0.00in /  0mm 121 W/m2
11:19 50.3 °F /  10.2 °C 45.6 °F /  7.6 °C 29.88in /  1011.7hPa NE 2.2mph /  3.5km/h 7mph /  11.3km/h 84% 0.00in /  0mm 142 W/m2
11:24 50.4 °F /  10.2 °C 45.4 °F /  7.4 °C 29.88in /  1011.7hPa NE 2mph /  3.2km/h 7mph /  11.3km/h 83.2% 0.00in /  0mm 162 W/m2
11:29 50.4 °F /  10.2 °C 45.3 °F /  7.4 °C 29.88in /  1011.7hPa NNE 1.8mph /  2.9km/h 5mph /  8km/h 83% 0.00in /  0mm 181 W/m2
11:34 50.4 °F /  10.2 °C 45.3 °F /  7.4 °C 29.88in /  1011.7hPa NNE 3.3mph /  5.3km/h 6mph /  9.7km/h 82.6% 0.00in /  0mm 179 W/m2
11:39 50.5 °F /  10.3 °C 45.3 °F /  7.4 °C 29.88in /  1011.7hPa NNE 1.8mph /  2.9km/h 6mph /  9.7km/h 82% 0.00in /  0mm 190 W/m2
11:44 50.5 °F /  10.3 °C 45.3 °F /  7.4 °C 29.88in /  1011.7hPa NE 2.6mph /  4.2km/h 6mph /  9.7km/h 82% 0.00in /  0mm 190 W/m2
11:49 50.7 °F /  10.4 °C 45.5 °F /  7.5 °C 29.88in /  1011.7hPa North 3.3mph /  5.3km/h 7mph /  11.3km/h 82% 0.00in /  0mm 181 W/m2
11:54 50.5 °F /  10.3 °C 45.1 °F /  7.3 °C 29.88in /  1011.7hPa North 7mph /  11.3km/h 11mph /  17.7km/h 81.3% 0.00in /  0mm 221 W/m2
11:59 50.5 °F /  10.3 °C 44.9 °F /  7.2 °C 29.88in /  1011.7hPa North 2.7mph /  4.3km/h 8mph /  12.9km/h 81% 0.00in /  0mm 251 W/m2
12:04 50.7 °F /  10.4 °C 45.5 °F /  7.5 °C 29.88in /  1011.7hPa NNW 0.7mph /  1.1km/h 5mph /  8km/h 82% 0.00in /  0mm 251 W/m2
12:09 51.1 °F /  10.6 °C 45.9 °F /  7.7 °C 29.88in /  1011.7hPa NNE 4.7mph /  7.6km/h 10mph /  16.1km/h 82% 0.00in /  0mm 213 W/m2
12:14 51.2 °F /  10.7 °C 45.8 °F /  7.7 °C 29.88in /  1011.7hPa NE 0.6mph /  1km/h 9mph /  14.5km/h 81.7% 0.00in /  0mm 218 W/m2
12:19 51.3 °F /  10.7 °C 45.9 °F /  7.7 °C 29.88in /  1011.7hPa NNE 1.9mph /  3.1km/h 5mph /  8km/h 81.3% 0.00in /  0mm 232 W/m2
12:24 51.6 °F /  10.9 °C 46 °F /  7.8 °C 29.88in /  1011.7hPa NNE 1.7mph /  2.7km/h 6mph /  9.7km/h 81.2% 0.00in /  0mm 232 W/m2
12:29 51.6 °F /  10.9 °C 46 °F /  7.8 °C 29.88in /  1011.7hPa NNE 2.5mph /  4km/h 7mph /  11.3km/h 81% 0.00in /  0mm 223 W/m2
12:34 51.6 °F /  10.9 °C 46 °F /  7.8 °C 29.88in /  1011.7hPa NNW 5.6mph /  9km/h 8mph /  12.9km/h 81% 0.00in /  0mm 220 W/m2
12:39 51.3 °F /  10.7 °C 45.8 °F /  7.7 °C 29.88in /  1011.7hPa NNW 6.1mph /  9.8km/h 9mph /  14.5km/h 81% 0.00in /  0mm 197 W/m2
12:44 51.1 °F /  10.6 °C 45.5 °F /  7.5 °C 29.88in /  1011.7hPa NNW 4.6mph /  7.4km/h 12mph /  19.3km/h 81% 0.00in /  0mm 200 W/m2
12:49 50.8 °F /  10.4 °C 45.2 °F /  7.3 °C 29.88in /  1011.7hPa North 7.9mph /  12.7km/h 13mph /  20.9km/h 81% 0.00in /  0mm 192 W/m2
12:54 50.5 °F /  10.3 °C 45 °F /  7.2 °C 29.88in /  1011.7hPa NNE 5.3mph /  8.5km/h 13mph /  20.9km/h 81% 0.00in /  0mm 193 W/m2
12:59 50.7 °F /  10.4 °C 45.1 °F /  7.3 °C 29.88in /  1011.7hPa North 5.2mph /  8.4km/h 11mph /  17.7km/h 81% 0.00in /  0mm 188 W/m2
13:04 50.7 °F /  10.4 °C 45.1 °F /  7.3 °C 29.88in /  1011.7hPa North 5.1mph /  8.2km/h 11mph /  17.7km/h 81% 0.00in /  0mm 197 W/m2
13:09 50.8 °F /  10.4 °C 45.2 °F /  7.3 °C 29.88in /  1011.7hPa North 6mph /  9.7km/h 10mph /  16.1km/h 81% 0.00in /  0mm 197 W/m2
13:14 50.9 °F /  10.5 °C 45.2 °F /  7.3 °C 29.88in /  1011.7hPa NNE 8.4mph /  13.5km/h 13mph /  20.9km/h 80.5% 0.00in /  0mm 220 W/m2
13:19 51 °F /  10.6 °C 45.1 °F /  7.3 °C 29.88in /  1011.7hPa North 5.2mph /  8.4km/h 13mph /  20.9km/h 80% 0.00in /  0mm 227 W/m2
13:24 51.2 °F /  10.7 °C 45.2 °F /  7.3 °C 29.88in /  1011.7hPa North 5.2mph /  8.4km/h 12mph /  19.3km/h 80% 0.00in /  0mm 223 W/m2
13:29 51.3 °F /  10.7 °C 45.3 °F /  7.4 °C 29.88in /  1011.7hPa NNE 7.7mph /  12.4km/h 14mph /  22.5km/h 80% 0.00in /  0mm 214 W/m2
13:34 51.3 °F /  10.7 °C 45.3 °F /  7.4 °C 29.88in /  1011.7hPa North 4.7mph /  7.6km/h 12mph /  19.3km/h 80% 0.00in /  0mm 218 W/m2
13:39 51.4 °F /  10.8 °C 45.3 °F /  7.4 °C 29.88in /  1011.7hPa North 6.7mph /  10.8km/h 14mph /  22.5km/h 79.6% 0.00in /  0mm 220 W/m2
13:44 51.3 °F /  10.7 °C 45 °F /  7.2 °C 29.88in /  1011.7hPa NNE 7.5mph /  12.1km/h 15mph /  24.1km/h 79% 0.00in /  0mm 234 W/m2
13:49 51.4 °F /  10.8 °C 45.1 °F /  7.3 °C 29.88in /  1011.7hPa NNE 7.7mph /  12.4km/h 17mph /  27.4km/h 79% 0.00in /  0mm 223 W/m2
13:54 51.5 °F /  10.8 °C 45.2 °F /  7.3 °C 29.88in /  1011.7hPa NNE 6.5mph /  10.5km/h 12mph /  19.3km/h 79% 0.00in /  0mm 223 W/m2
13:59 51.8 °F /  11 °C 45.5 °F /  7.5 °C 29.88in /  1011.7hPa NNE 3.4mph /  5.5km/h 9mph /  14.5km/h 79% 0.00in /  0mm 199 W/m2
14:04 51.8 °F /  11 °C 45.3 °F /  7.4 °C 29.88in /  1011.7hPa North 4.8mph /  7.7km/h 9mph /  14.5km/h 78.5% 0.00in /  0mm 171 W/m2
14:09 51.8 °F /  11 °C 45.3 °F /  7.4 °C 29.88in /  1011.7hPa NNW 4.6mph /  7.4km/h 10mph /  16.1km/h 78.3% 0.00in /  0mm 487 W/m2
14:14 52.6 °F /  11.4 °C 45.8 °F /  7.7 °C 29.88in /  1011.7hPa NNE 6.8mph /  10.9km/h 14mph /  22.5km/h 77.5% 0.00in /  0mm 503 W/m2
14:19 53.7 °F /  12.1 °C 46.3 °F /  7.9 °C 29.88in /  1011.7hPa North 1.9mph /  3.1km/h 14mph /  22.5km/h 76.2% 0.00in /  0mm 464 W/m2
14:24 54.8 °F /  12.7 °C 46.8 °F /  8.2 °C 29.88in /  1011.7hPa NNE 3.3mph /  5.3km/h 9mph /  14.5km/h 74.5% 0.00in /  0mm 504 W/m2
14:29 54.4 °F /  12.4 °C 46 °F /  7.8 °C 29.88in /  1011.7hPa NE 6.4mph /  10.3km/h 11mph /  17.7km/h 73% 0.00in /  0mm 504 W/m2
14:34 54.6 °F /  12.6 °C 46.1 °F /  7.8 °C 29.88in /  1011.7hPa NNE 7.7mph /  12.4km/h 13mph /  20.9km/h 73% 0.00in /  0mm 462 W/m2
14:39 54.5 °F /  12.5 °C 46 °F /  7.8 °C 29.88in /  1011.7hPa North 2.6mph /  4.2km/h 9mph /  14.5km/h 73% 0.00in /  0mm 496 W/m2
14:44 55 °F /  12.8 °C 46.1 °F /  7.8 °C 29.88in /  1011.7hPa North 6.1mph /  9.8km/h 13mph /  20.9km/h 71.6% 0.00in /  0mm 499 W/m2
14:49 54.6 °F /  12.6 °C 45.5 °F /  7.5 °C 29.88in /  1011.7hPa North 4.3mph /  6.9km/h 13mph /  20.9km/h 71.4% 0.00in /  0mm 464 W/m2
14:54 54.4 °F /  12.4 °C 45.4 °F /  7.4 °C 29.88in /  1011.7hPa NNE 6.9mph /  11.1km/h 13mph /  20.9km/h 71.5% 0.00in /  0mm 450 W/m2
14:59 53.7 °F /  12.1 °C 44.8 °F /  7.1 °C 29.88in /  1011.7hPa NNE 4.5mph /  7.2km/h 11mph /  17.7km/h 71.8% 0.00in /  0mm 153 W/m2
15:04 53.2 °F /  11.8 °C 44.4 °F /  6.9 °C 29.89in /  1012.1hPa NNE 6.7mph /  10.8km/h 14mph /  22.5km/h 72% 0.00in /  0mm 98 W/m2
15:09 53.2 °F /  11.8 °C 44.6 °F /  7 °C 29.89in /  1012.1hPa NNE 3.7mph /  6km/h 14mph /  22.5km/h 72.5% 0.00in /  0mm 425 W/m2
15:14 54 °F /  12.2 °C 45.4 °F /  7.4 °C 29.89in /  1012.1hPa NE 3.8mph /  6.1km/h 9mph /  14.5km/h 72.4% 0.00in /  0mm 378 W/m2
15:19 53.7 °F /  12.1 °C 44.7 °F /  7.1 °C 29.89in /  1012.1hPa North 6.7mph /  10.8km/h 12mph /  19.3km/h 71.7% 0.00in /  0mm 149 W/m2
15:24 53.3 °F /  11.8 °C 44.5 °F /  6.9 °C 29.89in /  1012.1hPa North 5.6mph /  9km/h 10mph /  16.1km/h 72.1% 0.00in /  0mm 341 W/m2
15:29 53.4 °F /  11.9 °C 44.9 °F /  7.2 °C 29.89in /  1012.1hPa NNW 5.3mph /  8.5km/h 10mph /  16.1km/h 72.8% 0.00in /  0mm 211 W/m2
15:34 53.2 °F /  11.8 °C 44.9 °F /  7.2 °C 29.89in /  1012.1hPa NNW 6mph /  9.7km/h 11mph /  17.7km/h 73.3% 0.00in /  0mm 104 W/m2
15:39 53 °F /  11.7 °C 45.1 °F /  7.3 °C 29.89in /  1012.1hPa NNW 5.6mph /  9km/h 11mph /  17.7km/h 74.5% 0.00in /  0mm 120 W/m2
15:44 52.9 °F /  11.6 °C 45.1 °F /  7.3 °C 29.90in /  1012.4hPa North 5.1mph /  8.2km/h 11mph /  17.7km/h 75% 0.00in /  0mm 128 W/m2
15:49 52.8 °F /  11.6 °C 45.1 °F /  7.3 °C 29.90in /  1012.4hPa North 4.2mph /  6.8km/h 11mph /  17.7km/h 75% 0.00in /  0mm 120 W/m2
15:54 52.7 °F /  11.5 °C 45.3 °F /  7.4 °C 29.90in /  1012.4hPa NNW 3.8mph /  6.1km/h 7mph /  11.3km/h 76% 0.00in /  0mm 60 W/m2
15:59 52.4 °F /  11.3 °C 45.1 °F /  7.3 °C 29.90in /  1012.4hPa North 5.9mph /  9.5km/h 12mph /  19.3km/h 76% 0.00in /  0mm 54 W/m2
16:04 52.2 °F /  11.2 °C 44.9 °F /  7.2 °C 29.90in /  1012.4hPa North 4mph /  6.4km/h 10mph /  16.1km/h 76.2% 0.00in /  0mm 39 W/m2
16:09 52.1 °F /  11.2 °C 45.1 °F /  7.3 °C 29.90in /  1012.4hPa North 4.6mph /  7.4km/h 9mph /  14.5km/h 77% 0.00in /  0mm 35 W/m2
16:14 52 °F /  11.1 °C 45 °F /  7.2 °C 29.90in /  1012.4hPa North 6.3mph /  10.1km/h 12mph /  19.3km/h 77% 0.00in /  0mm 39 W/m2
16:19 52 °F /  11.1 °C 45 °F /  7.2 °C 29.90in /  1012.4hPa North 3.9mph /  6.3km/h 12mph /  19.3km/h 77% 0.00in /  0mm 49 W/m2
16:24 52 °F /  11.1 °C 45 °F /  7.2 °C 29.91in /  1012.8hPa NNW 2.5mph /  4km/h 9mph /  14.5km/h 77% 0.00in /  0mm 56 W/m2
16:29 52 °F /  11.1 °C 45 °F /  7.2 °C 29.91in /  1012.8hPa NNW 1.2mph /  1.9km/h 5mph /  8km/h 77% 0.00in /  0mm 63 W/m2
16:34 52 °F /  11.1 °C 45 °F /  7.2 °C 29.91in /  1012.8hPa North 2.1mph /  3.4km/h 6mph /  9.7km/h 77% 0.00in /  0mm 67 W/m2
16:39 52.2 °F /  11.2 °C 45.1 °F /  7.3 °C 29.91in /  1012.8hPa NNE 2.5mph /  4km/h 6mph /  9.7km/h 77% 0.00in /  0mm 58 W/m2
16:44 52.1 °F /  11.2 °C 45.1 °F /  7.3 °C 29.91in /  1012.8hPa North 4.6mph /  7.4km/h 8mph /  12.9km/h 77% 0.00in /  0mm 53 W/m2
16:49 51.9 °F /  11.1 °C 44.9 °F /  7.2 °C 29.91in /  1012.8hPa North 5.6mph /  9km/h 9mph /  14.5km/h 77% 0.00in /  0mm 53 W/m2
16:54 51.8 °F /  11 °C 44.8 °F /  7.1 °C 29.91in /  1012.8hPa North 2.8mph /  4.5km/h 7mph /  11.3km/h 77% 0.00in /  0mm 54 W/m2
16:59 51.6 °F /  10.9 °C 44.6 °F /  7 °C 29.92in /  1013.1hPa NNE 2.7mph /  4.3km/h 8mph /  12.9km/h 77% 0.00in /  0mm 54 W/m2
17:04 51.6 °F /  10.9 °C 44.6 °F /  7 °C 29.92in /  1013.1hPa North 3.6mph /  5.8km/h 7mph /  11.3km/h 77% 0.00in /  0mm 49 W/m2
17:09 51.6 °F /  10.9 °C 44.6 °F /  7 °C 29.92in /  1013.1hPa NNE 2.1mph /  3.4km/h 5mph /  8km/h 77% 0.00in /  0mm 42 W/m2
17:14 51.6 °F /  10.9 °C 44.6 °F /  7 °C 29.92in /  1013.1hPa NNW 4mph /  6.4km/h 7mph /  11.3km/h 77% 0.00in /  0mm 33 W/m2
17:19 51.4 °F /  10.8 °C 44.7 °F /  7.1 °C 29.93in /  1013.4hPa NNW 4mph /  6.4km/h 8mph /  12.9km/h 77.6% 0.00in /  0mm 26 W/m2
17:24 51.4 °F /  10.8 °C 44.8 °F /  7.1 °C 29.92in /  1013.1hPa North 2.7mph /  4.3km/h 7mph /  11.3km/h 78% 0.00in /  0mm 21 W/m2
17:29 51.4 °F /  10.8 °C 44.8 °F /  7.1 °C 29.93in /  1013.4hPa North 2.5mph /  4km/h 7mph /  11.3km/h 78% 0.00in /  0mm 18 W/m2
17:34 51.3 °F /  10.7 °C 44.7 °F /  7.1 °C 29.93in /  1013.4hPa North 4.1mph /  6.6km/h 8mph /  12.9km/h 78% 0.00in /  0mm 14 W/m2
17:39 51.3 °F /  10.7 °C 44.6 °F /  7 °C 29.93in /  1013.4hPa NNW 2.4mph /  3.9km/h 8mph /  12.9km/h 78% 0.00in /  0mm 12 W/m2
17:44 51.3 °F /  10.7 °C 44.6 °F /  7 °C 29.93in /  1013.4hPa North 1.5mph /  2.4km/h 6mph /  9.7km/h 78% 0.00in /  0mm 11 W/m2
17:49 51.2 °F /  10.7 °C 44.5 °F /  6.9 °C 29.93in /  1013.4hPa North 4.1mph /  6.6km/h 8mph /  12.9km/h 78% 0.00in /  0mm 9 W/m2
17:54 51.1 °F /  10.6 °C 44.4 °F /  6.9 °C 29.93in /  1013.4hPa NNW 2.5mph /  4km/h 8mph /  12.9km/h 78% 0.00in /  0mm 9 W/m2
17:59 50.9 °F /  10.5 °C 44.6 °F /  7 °C 29.93in /  1013.4hPa North 2.2mph /  3.5km/h 8mph /  12.9km/h 78.9% 0.00in /  0mm 7 W/m2
18:04 50.7 °F /  10.4 °C 44.4 °F /  6.9 °C 29.93in /  1013.4hPa North 3.3mph /  5.3km/h 6mph /  9.7km/h 79% 0.00in /  0mm 5 W/m2
18:09 50.6 °F /  10.3 °C 44.3 °F /  6.8 °C 29.93in /  1013.4hPa North 1.8mph /  2.9km/h 6mph /  9.7km/h 79% 0.00in /  0mm 0 W/m2
18:14 50.5 °F /  10.3 °C 44.2 °F /  6.8 °C 29.93in /  1013.4hPa NNW 1.6mph /  2.6km/h 6mph /  9.7km/h 79% 0.00in /  0mm 0 W/m2
18:19 50.5 °F /  10.3 °C 44.2 °F /  6.8 °C 29.93in /  1013.4hPa NNW 2.4mph /  3.9km/h 7mph /  11.3km/h 79.2% 0.00in /  0mm 0 W/m2
18:24 50.4 °F /  10.2 °C 44.4 °F /  6.9 °C 29.93in /  1013.4hPa NNW 3.9mph /  6.3km/h 8mph /  12.9km/h 80% 0.00in /  0mm 0 W/m2
18:29 50.2 °F /  10.1 °C 44.2 °F /  6.8 °C 29.93in /  1013.4hPa North 0.7mph /  1.1km/h 6mph /  9.7km/h 80% 0.00in /  0mm 0 W/m2
18:34 50.2 °F /  10.1 °C 44.2 °F /  6.8 °C 29.93in /  1013.4hPa North 3.4mph /  5.5km/h 7mph /  11.3km/h 80% 0.00in /  0mm 0 W/m2
18:39 50 °F /  10 °C 44.1 °F /  6.7 °C 29.93in /  1013.4hPa NNW 2.2mph /  3.5km/h 7mph /  11.3km/h 80% 0.00in /  0mm 0 W/m2
18:44 50 °F /  10 °C 44.4 °F /  6.9 °C 29.94in /  1013.8hPa NW 1.6mph /  2.6km/h 4mph /  6.4km/h 81% 0.00in /  0mm 0 W/m2
18:49 49.9 °F /  9.9 °C 44.3 °F /  6.8 °C 29.94in /  1013.8hPa NW 1.3mph /  2.1km/h 5mph /  8km/h 81% 0.00in /  0mm 0 W/m2
18:54 49.8 °F /  9.9 °C 44.2 °F /  6.8 °C 29.94in /  1013.8hPa NNW 2.5mph /  4km/h 6mph /  9.7km/h 81% 0.00in /  0mm 0 W/m2
18:59 49.8 °F /  9.9 °C 44.2 °F /  6.8 °C 29.94in /  1013.8hPa North 2.4mph /  3.9km/h 6mph /  9.7km/h 81% 0.00in /  0mm 0 W/m2
19:04 50 °F /  10 °C 44.4 °F /  6.9 °C 29.94in /  1013.8hPa North 2.2mph /  3.5km/h 8mph /  12.9km/h 81% 0.00in /  0mm 0 W/m2
19:09 50 °F /  10 °C 44.4 °F /  6.9 °C 29.94in /  1013.8hPa NNW 2.6mph /  4.2km/h 6mph /  9.7km/h 81% 0.00in /  0mm 0 W/m2
19:14 50 °F /  10 °C 44.4 °F /  6.9 °C 29.95in /  1014.1hPa North 4.4mph /  7.1km/h 10mph /  16.1km/h 81% 0.00in /  0mm 0 W/m2
19:19 50 °F /  10 °C 44.4 °F /  6.9 °C 29.95in /  1014.1hPa NNW 2.2mph /  3.5km/h 8mph /  12.9km/h 81% 0.00in /  0mm 0 W/m2
19:24 50.1 °F /  10.1 °C 44.5 °F /  6.9 °C 29.95in /  1014.1hPa North 2.6mph /  4.2km/h 8mph /  12.9km/h 81% 0.00in /  0mm 0 W/m2
19:29 50.1 °F /  10.1 °C 44.5 °F /  6.9 °C 29.95in /  1014.1hPa North 4.2mph /  6.8km/h 11mph /  17.7km/h 81% 0.00in /  0mm 0 W/m2
19:34 50.1 °F /  10.1 °C 44.5 °F /  6.9 °C 29.96in /  1014.4hPa North 4.3mph /  6.9km/h 11mph /  17.7km/h 81% 0.00in /  0mm 0 W/m2
19:39 50.2 °F /  10.1 °C 44.6 °F /  7 °C 29.96in /  1014.4hPa North 4.2mph /  6.8km/h 11mph /  17.7km/h 81% 0.00in /  0mm 0 W/m2
19:44 50.1 °F /  10.1 °C 44.5 °F /  6.9 °C 29.96in /  1014.4hPa North 5.3mph /  8.5km/h 10mph /  16.1km/h 81.1% 0.00in /  0mm 0 W/m2
19:49 50 °F /  10 °C 44.8 °F /  7.1 °C 29.96in /  1014.4hPa North 6.7mph /  10.8km/h 15mph /  24.1km/h 82% 0.00in /  0mm 0 W/m2
19:54 50 °F /  10 °C 44.8 °F /  7.1 °C 29.96in /  1014.4hPa North 5mph /  8km/h 10mph /  16.1km/h 82% 0.00in /  0mm 0 W/m2
19:59 49.8 °F /  9.9 °C 44.8 °F /  7.1 °C 29.96in /  1014.4hPa North 8.6mph /  13.8km/h 16mph /  25.7km/h 82.9% 0.00in /  0mm 0 W/m2
20:04 49.6 °F /  9.8 °C 44.9 °F /  7.2 °C 29.96in /  1014.4hPa North 5.4mph /  8.7km/h 14mph /  22.5km/h 83.6% 0.00in /  0mm 0 W/m2
20:09 49.5 °F /  9.7 °C 44.9 °F /  7.2 °C 29.96in /  1014.4hPa North 3.7mph /  6km/h 9mph /  14.5km/h 84.3% 0.00in /  0mm 0 W/m2
20:14 49.3 °F /  9.6 °C 45 °F /  7.2 °C 29.96in /  1014.4hPa NNW 5.7mph /  9.2km/h 9mph /  14.5km/h 85% 0.00in /  0mm 0 W/m2
20:19 49.3 °F /  9.6 °C 45.2 °F /  7.3 °C 29.96in /  1014.4hPa North 5.2mph /  8.4km/h 9mph /  14.5km/h 85.7% 0.00in /  0mm 0 W/m2
20:24 49.2 °F /  9.6 °C 45.2 °F /  7.3 °C 29.96in /  1014.4hPa North 5.5mph /  8.9km/h 11mph /  17.7km/h 86% 0.00in /  0mm 0 W/m2
20:29 49 °F /  9.4 °C 45.1 °F /  7.3 °C 29.96in /  1014.4hPa NNW 4mph /  6.4km/h 11mph /  17.7km/h 86.6% 0.00in /  0mm 0 W/m2
20:34 49 °F /  9.4 °C 45.2 °F /  7.3 °C 29.96in /  1014.4hPa NNE 3.4mph /  5.5km/h 8mph /  12.9km/h 87% 0.00in /  0mm 0 W/m2
20:39 49 °F /  9.4 °C 45.2 °F /  7.3 °C 29.96in /  1014.4hPa North 6.3mph /  10.1km/h 11mph /  17.7km/h 87% 0.00in /  0mm 0 W/m2
20:44 49.1 °F /  9.5 °C 45.3 °F /  7.4 °C 29.96in /  1014.4hPa North 3.5mph /  5.6km/h 8mph /  12.9km/h 87% 0.00in /  0mm 0 W/m2
20:49 49.1 °F /  9.5 °C 45.3 °F /  7.4 °C 29.96in /  1014.4hPa NNW 3.2mph /  5.1km/h 8mph /  12.9km/h 87% 0.00in /  0mm 0 W/m2
20:54 49 °F /  9.4 °C 45.2 °F /  7.3 °C 29.96in /  1014.4hPa NNW 5.8mph /  9.3km/h 10mph /  16.1km/h 87% 0.00in /  0mm 0 W/m2
20:59 48.9 °F /  9.4 °C 45.3 °F /  7.4 °C 29.96in /  1014.4hPa NNW 3.5mph /  5.6km/h 11mph /  17.7km/h 87.5% 0.00in /  0mm 0 W/m2
21:04 48.9 °F /  9.4 °C 45.5 °F /  7.5 °C 29.96in /  1014.4hPa NNW 3.8mph /  6.1km/h 11mph /  17.7km/h 88% 0.00in /  0mm 0 W/m2
21:09 48.9 °F /  9.4 °C 45.5 °F /  7.5 °C 29.96in /  1014.4hPa North 3mph /  4.8km/h 10mph /  16.1km/h 88% 0.00in /  0mm 0 W/m2
21:14 48.9 °F /  9.4 °C 45.5 °F /  7.5 °C 29.97in /  1014.8hPa North 3.2mph /  5.1km/h 8mph /  12.9km/h 88% 0.00in /  0mm 0 W/m2
21:19 48.9 °F /  9.4 °C 45.9 °F /  7.7 °C 29.97in /  1014.8hPa NNW 4mph /  6.4km/h 8mph /  12.9km/h 88.9% 0.00in /  0mm 0 W/m2
21:24 48.9 °F /  9.4 °C 45.9 °F /  7.7 °C 29.97in /  1014.8hPa NNW 2.5mph /  4km/h 5mph /  8km/h 89% 0.00in /  0mm 0 W/m2
21:29 48.9 °F /  9.4 °C 45.9 °F /  7.7 °C 29.97in /  1014.8hPa NNW 2mph /  3.2km/h 6mph /  9.7km/h 89% 0.00in /  0mm 0 W/m2
21:34 48.9 °F /  9.4 °C 45.9 °F /  7.7 °C 29.97in /  1014.8hPa NNW 3.4mph /  5.5km/h 7mph /  11.3km/h 89% 0.00in /  0mm 0 W/m2
21:39 48.9 °F /  9.4 °C 45.9 °F /  7.7 °C 29.97in /  1014.8hPa North 3.9mph /  6.3km/h 10mph /  16.1km/h 89% 0.00in /  0mm 0 W/m2
21:44 48.9 °F /  9.4 °C 45.9 °F /  7.7 °C 29.98in /  1015.1hPa North 2.7mph /  4.3km/h 8mph /  12.9km/h 89% 0.00in /  0mm 0 W/m2
21:49 49.1 °F /  9.5 °C 46 °F /  7.8 °C 29.98in /  1015.1hPa NNW 0.9mph /  1.4km/h 4mph /  6.4km/h 89% 0.00in /  0mm 0 W/m2
21:54 49.1 °F /  9.5 °C 46 °F /  7.8 °C 29.98in /  1015.1hPa NNW 0.3mph /  0.5km/h 3mph /  4.8km/h 89% 0.00in /  0mm 0 W/m2
21:59 49.1 °F /  9.5 °C 46 °F /  7.8 °C 29.98in /  1015.1hPa NNW 0.6mph /  1km/h 3mph /  4.8km/h 89% 0.00in /  0mm 0 W/m2
22:04 49.1 °F /  9.5 °C 46 °F /  7.8 °C 29.98in /  1015.1hPa NNW 0.1mph /  0.2km/h 3mph /  4.8km/h 89% 0.00in /  0mm 0 W/m2
22:09 49.3 °F /  9.6 °C 46.2 °F /  7.9 °C 29.98in /  1015.1hPa NNW 2.3mph /  3.7km/h 7mph /  11.3km/h 89% 0.00in /  0mm 0 W/m2
22:14 49.3 °F /  9.6 °C 46.2 °F /  7.9 °C 29.99in /  1015.5hPa North 2.8mph /  4.5km/h 7mph /  11.3km/h 89% 0.00in /  0mm 0 W/m2
22:19 49.4 °F /  9.7 °C 46.3 °F /  7.9 °C 29.99in /  1015.5hPa NNW 1.8mph /  2.9km/h 5mph /  8km/h 89% 0.00in /  0mm 0 W/m2
22:24 49.5 °F /  9.7 °C 46.4 °F /  8 °C 29.99in /  1015.5hPa NNW 2.5mph /  4km/h 5mph /  8km/h 89% 0.00in /  0mm 0 W/m2
22:29 49.5 °F /  9.7 °C 46.4 °F /  8 °C 29.99in /  1015.5hPa NNE 1.5mph /  2.4km/h 5mph /  8km/h 89% 0.00in /  0mm 0 W/m2
22:34 49.5 °F /  9.7 °C 46.4 °F /  8 °C 29.99in /  1015.5hPa NNE 1mph /  1.6km/h 4mph /  6.4km/h 89% 0.00in /  0mm 0 W/m2
22:39 49.5 °F /  9.7 °C 46.4 °F /  8 °C 29.99in /  1015.5hPa North 1.1mph /  1.8km/h 5mph /  8km/h 89% 0.00in /  0mm 0 W/m2
22:44 49.5 °F /  9.7 °C 46.4 °F /  8 °C 29.99in /  1015.5hPa NNW 1.5mph /  2.4km/h 5mph /  8km/h 89% 0.00in /  0mm 0 W/m2
22:49 49.5 °F /  9.7 °C 46.4 °F /  8 °C 30.00in /  1015.8hPa NNW 1.9mph /  3.1km/h 5mph /  8km/h 89% 0.00in /  0mm 0 W/m2
22:54 49.6 °F /  9.8 °C 46.6 °F /  8.1 °C 29.99in /  1015.5hPa North 1.7mph /  2.7km/h 5mph /  8km/h 89% 0.00in /  0mm 0 W/m2
22:59 49.7 °F /  9.8 °C 46.7 °F /  8.2 °C 30.00in /  1015.8hPa North 3.4mph /  5.5km/h 9mph /  14.5km/h 89% 0.00in /  0mm 0 W/m2
23:04 49.8 °F /  9.9 °C 46.8 °F /  8.2 °C 30.00in /  1015.8hPa North 2.2mph /  3.5km/h 9mph /  14.5km/h 89% 0.00in /  0mm 0 W/m2
23:09 49.9 °F /  9.9 °C 46.8 °F /  8.2 °C 30.00in /  1015.8hPa North 4.1mph /  6.6km/h 7mph /  11.3km/h 89% 0.00in /  0mm 0 W/m2
23:14 50 °F /  10 °C 46.8 °F /  8.2 °C 30.00in /  1015.8hPa NNW 1.3mph /  2.1km/h 6mph /  9.7km/h 88.6% 0.00in /  0mm 0 W/m2
23:19 50 °F /  10 °C 46.6 °F /  8.1 °C 30.00in /  1015.8hPa NNW 1.8mph /  2.9km/h 7mph /  11.3km/h 88% 0.00in /  0mm 0 W/m2
23:24 49.9 °F /  9.9 °C 46.5 °F /  8.1 °C 30.00in /  1015.8hPa North 2mph /  3.2km/h 5mph /  8km/h 88% 0.00in /  0mm 0 W/m2
23:29 49.9 °F /  9.9 °C 46.5 °F /  8.1 °C 30.00in /  1015.8hPa North 0.4mph /  0.6km/h 4mph /  6.4km/h 88% 0.00in /  0mm 0 W/m2
23:34 49.8 °F /  9.9 °C 46.4 °F /  8 °C 30.00in /  1015.8hPa North 0.3mph /  0.5km/h 3mph /  4.8km/h 88% 0.00in /  0mm 0 W/m2
23:39 49.8 °F /  9.9 °C 46.4 °F /  8 °C 30.00in /  1015.8hPa North 1.3mph /  2.1km/h 4mph /  6.4km/h 88% 0.00in /  0mm 0 W/m2
23:44 49.8 °F /  9.9 °C 46.4 °F /  8 °C 30.00in /  1015.8hPa North 0.6mph /  1km/h 4mph /  6.4km/h 88% 0.00in /  0mm 0 W/m2
23:49 49.8 °F /  9.9 °C 46.4 °F /  8 °C 30.00in /  1015.8hPa NNW 1.4mph /  2.3km/h 6mph /  9.7km/h 88% 0.00in /  0mm 0 W/m2
23:54 49.8 °F /  9.9 °C 46.4 °F /  8 °C 30.00in /  1015.8hPa NNE 2.7mph /  4.3km/h 6mph /  9.7km/h 88% 0.00in /  0mm 0 W/m2
23:59 49.8 °F /  9.9 °C 46.7 °F /  8.2 °C 30.00in /  1015.8hPa North 1.7mph /  2.7km/h 5mph /  8km/h 88.7% 0.00in /  0mm 0 W/m2
Bath Spa Weather
Compliments of Weather Underground - 2 mb